Time;durP1;ratioP1;P1;durP2;ratioP2;P2;SDS_P1;SDS_P2;PMS_P1;PMS_P2;Temp;Humidity;BMP_temperature;BMP_pressure;BME280_temperature;BME280_humidity;BME280_pressure;Samples;Min_cycle;Max_cycle;Signal;HPM_P1;HPM_P2
2021/11/05 00:00:16;;;;;;;;;;;;;;;8.25;82.83;102328.62;1862687;77;20109;-59
2021/11/05 00:02:44;;;;;;;;;;;;;;;8.22;82.97;102329.93;1862890;77;20161;-59
2021/11/05 00:05:12;;;;;;;;;;;;;;;8.20;82.98;102333.87;1862785;77;20113;-59
2021/11/05 00:07:40;;;;;;;;;;;;;;;8.18;83.17;102336.08;1862679;77;20117;-60
2021/11/05 00:10:08;;;;;;;;;;;;;;;8.14;83.07;102327.34;1862668;77;20140;-59
2021/11/05 00:12:36;;;;;;;;;;;;;;;8.08;82.98;102330.86;1862827;77;20121;-60
2021/11/05 00:15:04;;;;;;;;;;;;;;;8.08;82.81;102335.24;1862732;77;20196;-60
2021/11/05 00:17:32;;;;;;;;;;;;;;;8.05;82.74;102326.92;1862801;77;20120;-59
2021/11/05 00:20:00;;;;;;;;;;;;;;;8.04;82.73;102330.44;1862689;77;20144;-60
2021/11/05 00:22:28;;;;;;;;;;;;;;;8.02;82.70;102330.89;1862702;77;20148;-60
2021/11/05 00:24:56;;;;;;;;;;;;;;;7.97;82.78;102333.06;1862666;77;20117;-60
2021/11/05 00:27:23;;;;;;;;;;;;;;;7.96;82.87;102338.75;1862622;77;20109;-60
2021/11/05 00:29:51;;;;;;;;;;;;;;;7.94;83.05;102337.89;1862824;77;20118;-59
2021/11/05 00:32:19;;;;;;;;;;;;;;;7.92;83.06;102334.40;1862700;77;20118;-59
2021/11/05 00:34:46;;;;;;;;;;;;;;;7.90;83.04;102332.22;1862782;77;20115;-59
2021/11/05 00:37:14;;;;;;;;;;;;;;;7.89;83.20;102332.67;1862695;77;20164;-60
2021/11/05 00:39:42;;;;;;;;;;;;;;;7.90;83.46;102330.91;1862600;77;20147;-59
2021/11/05 00:42:10;;;;;;;;;;;;;;;7.88;83.79;102325.66;1862706;77;20110;-59
2021/11/05 00:44:38;;;;;;;;;;;;;;;7.86;83.91;102327.87;1862633;77;20148;-59
2021/11/05 00:47:06;;;;;;;;;;;;;;;7.86;84.03;102334.42;1862688;77;20121;-59
2021/11/05 00:49:33;;;;;;;;;;;;;;;7.87;84.03;102330.46;1862650;77;20117;-59
2021/11/05 00:52:01;;;;;;;;;;;;;;;7.89;84.07;102329.16;1862632;77;20109;-60
2021/11/05 00:54:29;;;;;;;;;;;;;;;7.93;84.01;102328.30;1873750;76;20195;-59
2021/11/05 00:56:57;;;;;;;;;;;;;;;7.97;83.83;102338.30;1883908;76;20599;-59
2021/11/05 00:59:24;;;;;;;;;;;;;;;7.97;83.50;102327.81;1883953;76;20180;-59
2021/11/05 01:01:52;;;;;;;;;;;;;;;7.99;83.33;102332.64;1883919;76;20152;-59
2021/11/05 01:04:20;;;;;;;;;;;;;;;7.97;83.58;102334.38;1883901;76;20151;-60
2021/11/05 01:06:48;;;;;;;;;;;;;;;7.90;83.73;102330.91;1883878;76;20147;-60
2021/11/05 01:09:16;;;;;;;;;;;;;;;7.83;83.86;102328.73;1883931;76;20147;-61
2021/11/05 01:11:44;;;;;;;;;;;;;;;7.81;83.83;102325.69;1883882;76;20172;-60
2021/11/05 01:14:12;;;;;;;;;;;;;;;7.80;83.95;102324.83;1883942;76;20151;-60
2021/11/05 01:16:40;;;;;;;;;;;;;;;7.79;84.16;102324.38;1883925;76;20104;-60
2021/11/05 01:19:07;;;;;;;;;;;;;;;7.78;84.40;102320.44;1883889;76;20120;-61
2021/11/05 01:21:35;;;;;;;;;;;;;;;7.78;84.36;102329.17;1883916;76;20156;-60
2021/11/05 01:24:03;;;;;;;;;;;;;;;7.81;84.05;102321.30;1883951;76;20121;-60
2021/11/05 01:26:31;;;;;;;;;;;;;;;7.85;83.84;102324.80;1883980;76;20143;-59
2021/11/05 01:28:59;;;;;;;;;;;;;;;7.85;83.62;102321.73;1883915;76;20120;-60
2021/11/05 01:31:26;;;;;;;;;;;;;;;7.88;83.51;102320.87;1883926;76;20113;-60
2021/11/05 01:33:54;;;;;;;;;;;;;;;7.90;83.58;102323.05;1883871;76;20109;-60
2021/11/05 01:36:22;;;;;;;;;;;;;;;7.89;83.55;102326.53;1883945;76;20105;-60
2021/11/05 01:38:50;;;;;;;;;;;;;;;7.84;83.94;102320.41;1883909;76;20155;-60
2021/11/05 01:41:18;;;;;;;;;;;;;;;7.82;84.03;102324.80;1883940;76;20120;-60
2021/11/05 01:43:47;;;;;;;;;;;;;;;7.79;84.15;102327.00;1883930;76;20148;-59
2021/11/05 01:46:15;;;;;;;;;;;;;;;7.82;84.05;102320.86;1884045;76;20414;-60
2021/11/05 01:48:42;;;;;;;;;;;;;;;7.85;84.09;102328.73;1883953;76;20198;-59
2021/11/05 01:51:10;;;;;;;;;;;;;;;7.85;84.22;102335.28;1883907;76;20140;-59
2021/11/05 01:53:38;;;;;;;;;;;;;;;7.81;84.29;102340.98;1883930;76;20108;-59
2021/11/05 01:56:06;;;;;;;;;;;;;;;7.76;84.23;102344.03;1864019;76;20160;-59
2021/11/05 01:58:33;;;;;;;;;;;;;;;7.72;84.29;102348.86;1862653;77;20172;-60
2021/11/05 02:01:02;;;;;;;;;;;;;;;7.72;84.52;102343.16;1862588;77;20117;-60
2021/11/05 02:03:30;;;;;;;;;;;;;;;7.70;84.94;102342.30;1862885;77;20399;-60
2021/11/05 02:06:00;;;;;;;;;;;;;;;7.71;84.93;102346.69;1862624;77;20152;-60
2021/11/05 02:08:28;;;;;;;;;;;;;;;7.74;85.13;102348.41;1862627;77;20122;-59
2021/11/05 02:10:56;;;;;;;;;;;;;;;7.73;85.15;102348.00;1862620;77;20213;-60
2021/11/05 02:13:26;;;;;;;;;;;;;;;7.69;84.89;102348.44;1862524;77;20113;-59
2021/11/05 02:15:56;;;;;;;;;;;;;;;7.66;84.75;102348.43;1862639;77;20105;-59
2021/11/05 02:18:24;;;;;;;;;;;;;;;7.63;84.61;102351.05;1862645;77;20396;-59
2021/11/05 02:20:56;;;;;;;;;;;;;;;7.60;84.45;102352.37;1862610;77;20117;-60
2021/11/05 02:23:25;;;;;;;;;;;;;;;7.53;84.43;102345.39;1862574;77;20387;-59
2021/11/05 02:25:53;;;;;;;;;;;;;;;7.49;84.74;102345.83;1862580;77;20376;-60
2021/11/05 02:28:22;;;;;;;;;;;;;;;7.49;84.83;102352.83;1862635;77;20155;-59
2021/11/05 02:30:50;;;;;;;;;;;;;;;7.46;84.87;102345.81;1862605;77;20166;-60
2021/11/05 02:33:18;;;;;;;;;;;;;;;7.48;84.86;102335.34;1862616;77;20152;-59
2021/11/05 02:35:46;;;;;;;;;;;;;;;7.50;84.71;102344.07;1862626;77;20183;-60
2021/11/05 02:38:15;;;;;;;;;;;;;;;7.51;84.76;102343.21;1862606;77;20121;-60
2021/11/05 02:40:43;;;;;;;;;;;;;;;7.52;84.78;102334.05;1862573;77;20395;-61
2021/11/05 02:43:11;;;;;;;;;;;;;;;7.51;84.91;102338.84;1862648;77;20150;-60
2021/11/05 02:45:40;;;;;;;;;;;;;;;7.45;84.84;102341.47;1862622;77;20121;-60
2021/11/05 02:48:08;;;;;;;;;;;;;;;7.41;84.89;102340.14;1860860;77;20145;-60
2021/11/05 02:50:35;;;;;;;;;;;;;;;7.39;84.78;102338.83;1862595;77;20152;-60
2021/11/05 02:53:03;;;;;;;;;;;;;;;7.39;84.79;102340.59;1862569;77;20118;-60
2021/11/05 02:55:31;;;;;;;;;;;;;;;7.39;84.76;102343.20;1862613;76;20152;-60
2021/11/05 02:58:00;;;;;;;;;;;;;;;7.41;84.89;102349.31;1862605;77;20139;-60
2021/11/05 03:00:28;;;;;;;;;;;;;;;7.44;85.07;102350.64;1862573;77;20388;-60
2021/11/05 03:02:56;;;;;;;;;;;;;;;7.42;84.90;102345.84;1862599;77;20186;-60
2021/11/05 03:05:24;;;;;;;;;;;;;;;7.43;85.28;102348.87;1862505;77;20118;-61
2021/11/05 03:07:52;;;;;;;;;;;;;;;7.46;85.97;102350.20;1862627;77;20142;-60
2021/11/05 03:10:20;;;;;;;;;;;;;;;7.49;86.00;102346.27;1862648;77;20154;-60
2021/11/05 03:12:48;;;;;;;;;;;;;;;7.53;85.87;102342.77;1862573;77;20184;-60
2021/11/05 03:15:16;;;;;;;;;;;;;;;7.54;86.02;102344.08;1862600;76;20164;-60
2021/11/05 03:17:43;;;;;;;;;;;;;;;7.53;85.95;102340.15;1862579;77;20109;-59
2021/11/05 03:20:13;;;;;;;;;;;;;;;7.50;85.91;102344.07;1862464;77;20121;-59
2021/11/05 03:22:42;;;;;;;;;;;;;;;7.46;85.77;102334.47;1862590;77;20423;-59
2021/11/05 03:25:10;;;;;;;;;;;;;;;7.42;85.68;102330.98;1862568;77;20158;-60
2021/11/05 03:27:38;;;;;;;;;;;;;;;7.39;85.99;102325.72;1862663;77;20106;-60
2021/11/05 03:30:07;;;;;;;;;;;;;;;7.39;86.13;102330.97;1862722;77;20122;-60
2021/11/05 03:32:36;;;;;;;;;;;;;;;7.41;86.20;102338.39;1862625;77;20144;-60
2021/11/05 03:35:05;;;;;;;;;;;;;;;7.40;86.26;102334.48;1862706;77;20463;-60
2021/11/05 03:37:33;;;;;;;;;;;;;;;7.38;86.27;102332.27;1862752;77;20152;-60
2021/11/05 03:40:02;;;;;;;;;;;;;;;7.34;86.12;102338.84;1862704;77;20141;-60
2021/11/05 03:42:30;;;;;;;;;;;;;;;7.31;86.04;102337.97;1862827;77;20160;-60
2021/11/05 03:44:57;;;;;;;;;;;;;;;7.27;85.89;102342.33;1862892;77;20118;-60
2021/11/05 03:47:25;;;;;;;;;;;;;;;7.21;85.78;102344.96;1862637;77;20204;-60
2021/11/05 03:49:53;;;;;;;;;;;;;;;7.16;85.71;102346.70;1862714;77;20121;-60
2021/11/05 03:52:21;;;;;;;;;;;;;;;7.14;85.68;102336.22;1862689;77;20144;-60
2021/11/05 03:54:49;;;;;;;;;;;;;;;7.15;85.70;102335.77;1862694;77;20117;-60
2021/11/05 03:57:17;;;;;;;;;;;;;;;7.17;85.68;102339.70;1881980;76;20120;-59
2021/11/05 03:59:44;;;;;;;;;;;;;;;7.18;85.60;102337.09;1883894;76;20151;-60
2021/11/05 04:02:12;;;;;;;;;;;;;;;7.19;85.95;102336.20;1883988;76;20108;-60
2021/11/05 04:07:28;;;;;;;;;;;;;;;7.19;86.08;102331.41;1850807;78;20127;-60
2021/11/05 04:09:56;;;;;;;;;;;;;;;7.20;86.19;102330.10;1850854;78;20421;-60
2021/11/05 04:12:24;;;;;;;;;;;;;;;7.19;86.26;102329.66;1850745;78;20225;-60
2021/11/05 04:14:52;;;;;;;;;;;;;;;7.21;86.25;102332.27;1850837;78;20174;-60
2021/11/05 04:17:20;;;;;;;;;;;;;;;7.18;86.32;102330.55;1850885;78;20110;-60
2021/11/05 04:19:48;;;;;;;;;;;;;;;7.19;86.08;102334.02;1850834;78;20126;-60
2021/11/05 04:22:15;;;;;;;;;;;;;;;7.21;85.91;102337.52;1850866;78;20111;-60
2021/11/05 04:24:44;;;;;;;;;;;;;;;7.22;85.72;102334.91;1850816;78;20149;-60
2021/11/05 04:27:12;;;;;;;;;;;;;;;7.25;85.70;102333.61;1850842;78;20107;-60
2021/11/05 04:29:40;;;;;;;;;;;;;;;7.30;85.64;102330.97;1851029;78;20127;-60
2021/11/05 04:32:08;;;;;;;;;;;;;;;7.35;85.67;102334.47;1850890;78;20123;-60
2021/11/05 04:34:36;;;;;;;;;;;;;;;7.43;85.62;102330.12;1850842;78;20115;-60
2021/11/05 04:37:04;;;;;;;;;;;;;;;7.53;85.47;102330.97;1850831;78;20127;-60
2021/11/05 04:39:32;;;;;;;;;;;;;;;7.55;85.49;102326.59;1850785;78;20174;-60
2021/11/05 04:42:01;;;;;;;;;;;;;;;7.57;85.40;102329.22;1850891;78;20153;-60
2021/11/05 04:44:29;;;;;;;;;;;;;;;7.56;85.26;102327.02;1851072;78;20365;-59
2021/11/05 04:46:57;;;;;;;;;;;;;;;7.58;85.14;102327.02;1850840;78;20123;-60
2021/11/05 04:49:26;;;;;;;;;;;;;;;7.62;84.96;102333.59;1850867;78;20110;-60
2021/11/05 04:51:54;;;;;;;;;;;;;;;7.70;84.76;102331.81;1850833;78;20154;-60
2021/11/05 04:54:22;;;;;;;;;;;;;;;7.84;84.68;102329.59;1850817;78;20119;-60
2021/11/05 04:56:50;;;;;;;;;;;;;;;7.96;84.57;102336.13;1850853;78;20123;-59
2021/11/05 04:59:19;;;;;;;;;;;;;;;8.07;84.36;102335.66;1850865;78;20157;-60
2021/11/05 05:01:48;;;;;;;;;;;;;;;8.15;84.19;102338.70;1850797;78;20119;-60
2021/11/05 05:04:16;;;;;;;;;;;;;;;8.25;84.21;102341.73;1850694;78;20369;-61
2021/11/05 05:06:44;;;;;;;;;;;;;;;8.38;84.38;102351.75;1839902;78;20175;-60
2021/11/05 05:09:11;;;;;;;;;;;;;;;8.52;84.36;102344.73;1830276;78;20124;-60
2021/11/05 05:11:44;;;;;;;;;;;;;;;8.62;83.93;102348.17;1830243;78;20128;-60
2021/11/05 05:14:09;;;;;;;;;;;;;;;8.69;83.06;102348.58;1829969;78;20120;-62
2021/11/05 05:16:36;;;;;;;;;;;;;;;8.76;82.30;102347.66;1830288;78;20120;-61
2021/11/05 05:19:04;;;;;;;;;;;;;;;9.01;81.67;102346.19;1830234;78;20151;-61
2021/11/05 05:21:32;;;;;;;;;;;;;;;9.50;80.54;102340.55;1830280;78;20124;-61
2021/11/05 05:24:00;;;;;;;;;;;;;;;10.09;79.92;102342.56;1830274;78;20120;-61
2021/11/05 05:26:27;;;;;;;;;;;;;;;10.69;79.83;102340.09;1830256;78;20116;-61
2021/11/05 05:28:55;;;;;;;;;;;;;;;11.19;78.87;102347.70;1830245;78;20108;-60
2021/11/05 05:31:23;;;;;;;;;;;;;;;11.65;77.57;102343.39;1830371;78;20170;-61
2021/11/05 05:33:51;;;;;;;;;;;;;;;12.11;76.10;102344.34;1830237;78;20179;-61
2021/11/05 05:36:19;;;;;;;;;;;;;;;12.54;75.13;102346.08;1830306;78;20154;-61
2021/11/05 05:38:46;;;;;;;;;;;;;;;13.14;75.16;102344.27;1830300;78;20120;-60
2021/11/05 05:41:14;;;;;;;;;;;;;;;13.75;75.12;102339.67;1830252;78;20198;-61
2021/11/05 05:43:42;;;;;;;;;;;;;;;14.32;74.62;102337.23;1830334;78;20119;-61
2021/11/05 05:46:10;;;;;;;;;;;;;;;14.62;71.92;102340.30;1830219;78;20155;-62
2021/11/05 05:48:38;;;;;;;;;;;;;;;14.88;70.29;102331.98;1830362;78;20119;-61
2021/11/05 05:51:06;;;;;;;;;;;;;;;15.44;70.70;102335.05;1830241;78;20112;-61
2021/11/05 05:53:33;;;;;;;;;;;;;;;16.03;70.28;102327.24;1830406;78;20159;-61
2021/11/05 05:56:01;;;;;;;;;;;;;;;16.45;69.29;102328.33;1830256;78;20123;-61
2021/11/05 05:58:29;;;;;;;;;;;;;;;16.75;67.65;102331.59;1830244;78;20150;-61
2021/11/05 06:00:57;;;;;;;;;;;;;;;17.10;67.48;102333.33;1830262;78;20246;-60
2021/11/05 06:03:25;;;;;;;;;;;;;;;17.36;66.93;102323.78;1830309;78;20119;-61
2021/11/05 06:05:52;;;;;;;;;;;;;;;17.60;65.87;102337.45;1830272;78;20124;-61
2021/11/05 06:08:20;;;;;;;;;;;;;;;17.79;64.08;102336.17;1849733;78;20123;-61
2021/11/05 06:10:48;;;;;;;;;;;;;;;18.09;63.42;102336.18;1850827;78;20151;-60
2021/11/05 06:13:16;;;;;;;;;;;;;;;18.49;63.26;102332.13;1850696;78;20153;-61
2021/11/05 06:15:44;;;;;;;;;;;;;;;19.01;63.20;102328.77;1850866;78;20115;-61
2021/11/05 06:18:12;;;;;;;;;;;;;;;19.23;60.45;102336.58;1850811;78;20158;-60
2021/11/05 06:20:40;;;;;;;;;;;;;;;19.35;59.83;102337.30;1850814;78;20153;-61
2021/11/05 06:23:08;;;;;;;;;;;;;;;19.57;59.12;102337.06;1850816;78;20119;-61
2021/11/05 06:25:36;;;;;;;;;;;;;;;19.76;58.14;102335.66;1850795;78;20126;-62
2021/11/05 06:28:04;;;;;;;;;;;;;;;20.20;59.30;102333.75;1850771;78;20115;-61
2021/11/05 06:30:32;;;;;;;;;;;;;;;20.62;58.63;102328.83;1850811;78;20123;-61
2021/11/05 06:33:01;;;;;;;;;;;;;;;20.78;56.09;102328.80;1850756;78;20150;-61
2021/11/05 06:35:29;;;;;;;;;;;;;;;20.76;55.04;102330.22;1850480;78;20170;-58
2021/11/05 06:37:57;;;;;;;;;;;;;;;20.91;54.53;102324.95;1850692;78;20166;-57
2021/11/05 06:40:25;;;;;;;;;;;;;;;21.19;54.24;102331.78;1850725;78;20159;-59
2021/11/05 06:42:53;;;;;;;;;;;;;;;21.59;54.07;102329.89;1838981;78;20220;-57
2021/11/05 06:45:21;;;;;;;;;;;;;;;22.21;54.69;102323.43;1838557;78;20150;-58
2021/11/05 06:47:49;;;;;;;;;;;;;;;22.89;54.35;102326.66;1849817;78;20119;-58
2021/11/05 06:50:17;;;;;;;;;;;;;;;23.46;54.83;102320.15;1850754;78;20123;-58
2021/11/05 06:52:45;;;;;;;;;;;;;;;24.03;54.96;102314.86;1842007;78;20112;-58
2021/11/05 06:55:13;;;;;;;;;;;;;;;24.60;54.38;102311.63;1841312;78;20194;-58
2021/11/05 06:57:40;;;;;;;;;;;;;;;25.01;55.02;102306.34;1838876;78;20120;-59
2021/11/05 07:00:10;;;;;;;;;;;;;;;25.50;54.95;102309.81;1838695;78;20131;-58
2021/11/05 07:02:43;;;;;;;;;;;;;;;25.92;54.14;102309.27;1841027;78;20146;-59
2021/11/05 07:05:08;;;;;;;;;;;;;;;26.41;53.92;102309.35;1841051;78;20115;-59
2021/11/05 07:07:36;;;;;;;;;;;;;;;26.79;52.40;102308.57;1838970;77;20194;-59
2021/11/05 07:10:05;;;;;;;;;;;;;;;26.81;51.58;102303.89;1838730;78;20162;-59
2021/11/05 07:12:34;;;;;;;;;;;;;;;27.09;51.96;102308.67;1840873;78;20171;-59
2021/11/05 07:15:13;;;;;;;;;;;;;;;;;;;;;
2021/11/05 07:17:33;;;;;;;;;;;;;;;27.66;50.31;102298.40;1831042;78;20131;-58
2021/11/05 07:20:00;;;;;;;;;;;;;;;28.01;51.06;102297.67;1838689;78;20151;-59
2021/11/05 07:22:28;;;;;;;;;;;;;;;28.48;50.20;102300.66;1861644;77;20117;-58
2021/11/05 07:24:56;;;;;;;;;;;;;;;28.70;49.92;102294.16;1858206;77;20124;-59
2021/11/05 07:27:24;;;;;;;;;;;;;;;28.24;49.56;102294.27;1846598;77;20111;-58
2021/11/05 07:29:52;;;;;;;;;;;;;;;26.78;52.05;102296.88;1809692;79;20102;-58
2021/11/05 07:32:19;;;;;;;;;;;;;;;25.90;52.32;102301.78;1809600;79;20114;-59
2021/11/05 07:34:48;;;;;;;;;;;;;;;26.29;50.78;102294.18;1809648;79;20122;-58
2021/11/05 07:37:18;;;;;;;;;;;;;;;27.13;50.00;102294.39;1809785;79;20122;-58
2021/11/05 07:39:46;;;;;;;;;;;;;;;27.63;48.07;102289.22;1809698;79;20110;-58
2021/11/05 07:42:15;;;;;;;;;;;;;;;27.83;47.57;102288.82;1809680;79;20122;-58
2021/11/05 07:44:42;;;;;;;;;;;;;;;28.24;47.72;102284.80;1809665;79;20110;-58
2021/11/05 07:47:10;;;;;;;;;;;;;;;28.71;46.96;102285.02;1830562;78;20230;-59
2021/11/05 07:49:38;;;;;;;;;;;;;;;28.99;45.31;102291.94;1841371;77;20154;-59
2021/11/05 07:52:06;;;;;;;;;;;;;;;29.06;44.88;102290.37;1819223;78;20156;-58
2021/11/05 07:54:34;;;;;;;;;;;;;;;29.20;45.13;102288.61;1807077;79;20223;-60
2021/11/05 07:57:02;;;;;;;;;;;;;;;29.41;44.25;102288.92;1816210;79;20125;-59
2021/11/05 07:59:30;;;;;;;;;;;;;;;29.55;42.88;102287.10;1820674;79;20109;-60
2021/11/05 08:01:58;;;;;;;;;;;;;;;29.67;43.41;102286.41;1809832;79;20162;-59
2021/11/05 08:04:26;;;;;;;;;;;;;;;30.13;43.37;102286.53;1803005;80;20114;-60
2021/11/05 08:06:54;;;;;;;;;;;;;;;30.25;42.09;102281.25;1805969;79;20173;-61
2021/11/05 08:09:22;;;;;;;;;;;;;;;30.29;42.36;102281.28;1807101;78;20563;-60
2021/11/05 08:11:50;;;;;;;;;;;;;;;30.58;41.17;102275.69;1805787;79;20122;-61
2021/11/05 08:14:18;;;;;;;;;;;;;;;30.56;41.20;102279.55;1804528;80;20167;-61
2021/11/05 08:16:45;;;;;;;;;;;;;;;30.71;41.33;102283.45;1805811;79;20368;-61
2021/11/05 08:19:13;;;;;;;;;;;;;;;31.10;39.98;102283.66;1807120;79;20126;-57
2021/11/05 08:21:41;;;;;;;;;;;;;;;31.07;39.93;102276.64;1805894;79;20153;-58
2021/11/05 08:24:10;;;;;;;;;;;;;;;30.86;39.78;102278.80;1804592;80;20150;-59
2021/11/05 08:26:37;;;;;;;;;;;;;;;30.89;39.28;102278.50;1805541;79;20125;-59
2021/11/05 08:29:06;;;;;;;;;;;;;;;30.90;39.34;102270.70;1807225;79;20126;-58
2021/11/05 08:31:34;;;;;;;;;;;;;;;30.87;38.87;102273.21;1805979;79;20180;-58
2021/11/05 08:34:02;;;;;;;;;;;;;;;31.13;39.17;102273.80;1804498;80;20121;-58
2021/11/05 08:36:30;;;;;;;;;;;;;;;31.16;38.76;102264.81;1805650;79;20122;-58
2021/11/05 08:38:58;;;;;;;;;;;;;;;31.47;38.91;102260.29;1807100;79;20126;-59
2021/11/05 08:41:26;;;;;;;;;;;;;;;31.46;37.51;102257.69;1806154;79;20713;-58
2021/11/05 08:43:56;;;;;;;;;;;;;;;31.53;38.24;102255.55;1804661;80;20147;-59
2021/11/05 08:46:28;;;;;;;;;;;;;;;31.73;36.87;102255.32;1805399;79;20450;-58
2021/11/05 08:48:57;;;;;;;;;;;;;;;31.62;36.99;102252.89;1807090;79;20410;-58
2021/11/05 08:51:25;;;;;;;;;;;;;;;31.85;36.26;102247.70;1779847;80;20124;-59
2021/11/05 08:53:53;;;;;;;;;;;;;;;31.74;36.48;102242.91;1808445;79;20419;-59
2021/11/05 08:56:22;;;;;;;;;;;;;;;32.13;36.65;102241.55;1815138;78;20168;-58
2021/11/05 08:58:49;;;;;;;;;;;;;;;32.28;36.67;102239.87;1827382;79;20148;-58
2021/11/05 09:01:17;;;;;;;;;;;;;;;32.32;35.73;102231.70;1827398;79;20149;-58
2021/11/05 09:03:45;;;;;;;;;;;;;;;32.13;35.66;102231.49;1827319;79;20604;-59
2021/11/05 09:06:13;;;;;;;;;;;;;;;32.20;35.52;102222.12;1827282;79;20147;-58
2021/11/05 09:08:43;;;;;;;;;;;;;;;32.37;34.90;102223.52;1829889;77;20148;-58
2021/11/05 09:11:11;;;;;;;;;;;;;;;32.03;34.78;102224.48;1833119;78;20124;-58
2021/11/05 09:13:39;;;;;;;;;;;;;;;32.04;34.43;102219.36;1832890;78;20484;-59
2021/11/05 09:16:07;;;;;;;;;;;;;;;32.28;34.97;102213.98;1828344;78;20145;-58
2021/11/05 09:18:35;;;;;;;;;;;;;;;32.64;34.91;102217.78;1785494;80;20127;-59
2021/11/05 09:21:04;;;;;;;;;;;;;;;32.82;34.74;102215.41;1791695;79;20250;-59
2021/11/05 09:23:32;;;;;;;;;;;;;;;32.94;34.64;102211.27;1816114;79;20154;-58
2021/11/05 09:26:00;;;;;;;;;;;;;;;32.90;34.45;102208.56;1844415;78;20150;-58
2021/11/05 09:28:27;;;;;;;;;;;;;;;32.82;34.18;102205.86;1850901;78;20123;-59
2021/11/05 09:30:55;;;;;;;;;;;;;;;32.73;33.63;102200.06;1850584;78;20123;-59
2021/11/05 09:33:23;;;;;;;;;;;;;;;32.25;33.50;102197.95;1850967;78;20119;-61
2021/11/05 09:35:51;;;;;;;;;;;;;;;32.20;33.63;102198.96;1851006;78;20181;-62
2021/11/05 09:38:19;;;;;;;;;;;;;;;32.21;33.33;102192.50;1850801;78;20119;-59
2021/11/05 09:40:49;;;;;;;;;;;;;;;32.12;33.41;102190.78;1849744;78;20146;-63
2021/11/05 09:43:16;;;;;;;;;;;;;;;31.84;32.74;102189.66;1841639;78;20167;-62
2021/11/05 09:45:44;;;;;;;;;;;;;;;31.86;33.09;102184.91;1842417;78;20120;-64
2021/11/05 09:48:13;;;;;;;;;;;;;;;32.00;33.17;102182.55;1850753;78;20107;-61
2021/11/05 09:50:42;;;;;;;;;;;;;;;31.82;32.57;102182.17;1850092;78;20205;-62
2021/11/05 09:53:10;;;;;;;;;;;;;;;31.71;32.61;102177.88;1841580;78;20132;-63
2021/11/05 09:55:39;;;;;;;;;;;;;;;31.87;32.85;102175.73;1842057;78;20142;-63
2021/11/05 09:58:08;;;;;;;;;;;;;;;31.90;32.61;102175.38;1850692;77;20409;-62
2021/11/05 10:00:37;;;;;;;;;;;;;;;32.07;32.70;102174.92;1850723;78;20221;-60
2021/11/05 10:03:06;;;;;;;;;;;;;;;31.73;32.78;102177.72;1850824;78;20115;-66
2021/11/05 10:05:34;;;;;;;;;;;;;;;32.12;33.10;102179.89;1850874;78;20150;-62
2021/11/05 10:08:02;;;;;;;;;;;;;;;32.02;33.18;102176.41;1850944;78;20153;-60
2021/11/05 10:10:32;;;;;;;;;;;;;;;32.10;33.31;102172.39;1861027;77;20146;-59
2021/11/05 10:13:04;;;;;;;;;;;;;;;32.10;33.55;102169.67;1862667;77;20149;-61
2021/11/05 10:15:42;;;;;;;;;;;;;;;32.39;33.75;102177.38;1862733;77;20417;-60
2021/11/05 10:18:17;;;;;;;;;;;;;;;32.62;33.75;102176.72;1862717;77;20377;-61
2021/11/05 10:20:47;;;;;;;;;;;;;;;32.59;33.98;102175.20;1862729;77;20161;-60
2021/11/05 10:23:16;;;;;;;;;;;;;;;32.31;34.04;102172.77;1862623;77;20118;-62
2021/11/05 10:25:47;;;;;;;;;;;;;;;32.23;34.16;102170.02;1862738;77;20614;-60
2021/11/05 10:28:25;;;;;;;;;;;;;;;32.22;34.04;102172.42;1862710;77;20126;-60
2021/11/05 10:30:57;;;;;;;;;;;;;;;32.03;34.35;102165.91;1862680;77;20119;-60
2021/11/05 10:33:29;;;;;;;;;;;;;;;32.16;34.50;102164.91;1860822;77;20189;-60
2021/11/05 10:35:56;;;;;;;;;;;;;;;32.25;34.54;102161.16;1862594;77;20206;-60
2021/11/05 10:38:25;;;;;;;;;;;;;;;32.29;34.59;102159.80;1862824;77;20099;-61
2021/11/05 10:40:54;;;;;;;;;;;;;;;32.26;34.80;102157.44;1862814;77;20393;-61
2021/11/05 10:43:32;;;;;;;;;;;;;;;31.92;34.81;102158.34;1862818;77;20122;-62
2021/11/05 10:46:00;;;;;;;;;;;;;;;31.50;34.87;102152.46;1862788;77;20122;-62
2021/11/05 10:48:30;;;;;;;;;;;;;;;31.34;35.06;102147.75;1862731;77;20106;-61
2021/11/05 10:51:07;;;;;;;;;;;;;;;31.23;35.45;102145.84;1862915;77;20153;-61
2021/11/05 10:53:33;;;;;;;;;;;;;;;31.17;35.63;102147.31;1861103;77;20110;-62
2021/11/05 10:56:08;;;;;;;;;;;;;;;31.17;35.65;102150.91;1860516;77;20119;-61
2021/11/05 10:58:40;;;;;;;;;;;;;;;30.93;35.58;102149.38;1862766;77;20385;-62
2021/11/05 11:01:10;;;;;;;;;;;;;;;30.90;35.85;102144.25;1862863;77;20185;-61
2021/11/05 11:03:42;;;;;;;;;;;;;;;30.93;36.07;102137.14;1862799;77;20149;-61
2021/11/05 11:06:11;;;;;;;;;;;;;;;30.76;36.22;102140.23;1854564;77;20153;-63
2021/11/05 11:08:41;;;;;;;;;;;;;;;30.52;36.23;102131.39;1861075;76;20123;-63
2021/11/05 11:11:25;;;;;;;;;;;;;;;30.09;36.58;102133.03;1836238;76;20150;-63
2021/11/05 11:13:55;;;;;;;;;;;;;;;29.76;36.77;102132.69;1838446;78;20119;-62
2021/11/05 11:16:25;;;;;;;;;;;;;;;29.18;37.17;102130.59;1838287;78;20119;-62
2021/11/05 11:18:54;;;;;;;;;;;;;;;28.90;37.82;102127.44;1838355;78;20108;-61
2021/11/05 11:21:24;;;;;;;;;;;;;;;28.82;38.15;102131.73;1838684;78;20128;-59
2021/11/05 11:23:52;;;;;;;;;;;;;;;28.73;38.37;102128.53;1837955;78;20381;-59
2021/11/05 11:26:20;;;;;;;;;;;;;;;28.68;38.62;102129.47;1838641;78;20108;-59
2021/11/05 11:28:48;;;;;;;;;;;;;;;28.44;38.81;102124.48;1838833;78;20124;-59
2021/11/05 11:31:17;;;;;;;;;;;;;;;28.02;39.28;102120.22;1839232;78;20198;-60
2021/11/05 11:33:46;;;;;;;;;;;;;;;27.58;39.02;102118.31;1838077;77;20432;-60
2021/11/05 11:36:15;;;;;;;;;;;;;;;27.01;39.66;102116.56;1839152;77;20389;-61
2021/11/05 11:38:44;;;;;;;;;;;;;;;26.42;40.55;102113.95;1838288;78;20131;-62
2021/11/05 11:41:12;;;;;;;;;;;;;;;26.14;40.97;102117.63;1838294;78;20362;-60
2021/11/05 11:43:40;;;;;;;;;;;;;;;26.12;41.19;102118.25;1841387;78;20184;-60
2021/11/05 11:46:08;;;;;;;;;;;;;;;25.97;41.43;102121.73;1840689;78;20116;-59
2021/11/05 11:48:37;;;;;;;;;;;;;;;25.88;41.67;102121.62;1838818;77;20201;-60
2021/11/05 11:51:19;;;;;;;;;;;;;;;25.38;42.58;102126.95;1841819;77;20178;-62
2021/11/05 11:53:47;;;;;;;;;;;;;;;24.71;43.68;102136.27;1850702;78;20162;-58
2021/11/05 11:56:28;;;;;;;;;;;;;;;24.06;44.77;102130.35;1849739;78;20146;-59
2021/11/05 11:59:01;;;;;;;;;;;;;;;23.57;45.67;102128.07;1850531;78;20470;-60
2021/11/05 12:01:30;;;;;;;;;;;;;;;23.15;46.38;102128.81;1843901;77;20225;-60
2021/11/05 12:04:00;;;;;;;;;;;;;;;22.77;47.28;102125.59;1848478;78;20381;-61
2021/11/05 12:06:29;;;;;;;;;;;;;;;22.53;47.77;102126.78;1846290;77;20127;-59
2021/11/05 12:08:57;;;;;;;;;;;;;;;22.30;48.70;102125.17;1842638;78;20119;-59
2021/11/05 12:11:27;;;;;;;;;;;;;;;22.05;49.29;102133.94;1841191;78;20124;-58
2021/11/05 12:14:00;;;;;;;;;;;;;;;21.90;49.47;102129.11;1838602;78;20111;-63
2021/11/05 12:16:27;;;;;;;;;;;;;;;21.84;49.51;102130.86;1839128;78;20190;-63
2021/11/05 12:21:30;;;;;;;;;;;;;;;21.62;50.27;102133.20;1840070;78;20144;-63
2021/11/05 12:24:24;;;;;;;;;;;;;;;21.49;50.57;102133.97;1839065;77;20123;-64
2021/11/05 12:26:48;;;;;;;;;;;;;;;21.42;50.82;102128.58;1839148;78;20124;-61
2021/11/05 12:29:36;;;;;;;;;;;;;;;21.30;51.52;102132.02;1841268;78;20461;-62
2021/11/05 12:32:18;;;;;;;;;;;;;;;21.14;52.41;102128.97;1839014;78;20108;-61
2021/11/05 12:34:53;;;;;;;;;;;;;;;21.01;52.44;102132.88;1838310;78;20201;-62
2021/11/05 12:37:35;;;;;;;;;;;;;;;20.91;53.13;102133.52;1839582;78;20108;-62
2021/11/05 12:40:23;;;;;;;;;;;;;;;20.76;53.69;102132.15;1841130;78;20124;-63
2021/11/05 12:42:56;;;;;;;;;;;;;;;20.60;54.40;102132.64;1838488;78;20119;-63
2021/11/05 12:45:25;;;;;;;;;;;;;;;20.46;54.67;102129.47;1838711;78;20120;-62
2021/11/05 12:47:54;;;;;;;;;;;;;;;20.37;55.06;102130.86;1835490;78;20128;-62
2021/11/05 12:50:24;;;;;;;;;;;;;;;20.25;55.22;102124.87;1837780;78;20115;-62
2021/11/05 12:52:55;;;;;;;;;;;;;;;20.15;55.82;102126.38;1838755;78;20128;-62
2021/11/05 12:55:24;;;;;;;;;;;;;;;20.02;56.71;102129.73;1837995;78;20447;-62